sensor_id;sensor_type;location;lat;lon;timestamp;pressure;altitude;pressure_sealevel;temperature;humidity
51986;BME280;38002;53.296;6.600;2022-10-16T00:02:55;101000.47;;;12.36;88.80
51986;BME280;38002;53.296;6.600;2022-10-16T00:07:55;100994.53;;;12.40;88.91
51986;BME280;38002;53.296;6.600;2022-10-16T00:12:56;100998.44;;;12.46;88.79
51986;BME280;38002;53.296;6.600;2022-10-16T00:17:56;100995.72;;;12.46;88.87
51986;BME280;38002;53.296;6.600;2022-10-16T00:22:57;100996.22;;;12.49;88.89
51986;BME280;38002;53.296;6.600;2022-10-16T00:27:58;100992.63;;;12.49;88.60
51986;BME280;38002;53.296;6.600;2022-10-16T00:32:59;100994.88;;;12.45;88.49
51986;BME280;38002;53.296;6.600;2022-10-16T00:37:59;100994.88;;;12.45;88.75
51986;BME280;38002;53.296;6.600;2022-10-16T00:42:59;100986.84;;;12.44;88.55
51986;BME280;38002;53.296;6.600;2022-10-16T00:48:00;100987.84;;;12.43;89.22
51986;BME280;38002;53.296;6.600;2022-10-16T00:53:01;100982.59;;;12.41;88.52
51986;BME280;38002;53.296;6.600;2022-10-16T00:58:02;100985.97;;;12.43;88.60
51986;BME280;38002;53.296;6.600;2022-10-16T01:03:22;100980.38;;;12.45;88.86
51986;BME280;38002;53.296;6.600;2022-10-16T01:08:40;100979.50;;;12.44;88.49
51986;BME280;38002;53.296;6.600;2022-10-16T01:13:48;100975.94;;;12.44;88.56
51986;BME280;38002;53.296;6.600;2022-10-16T01:19:06;100980.53;;;12.43;88.79
51986;BME280;38002;53.296;6.600;2022-10-16T01:29:24;100993.34;;;12.51;88.19
51986;BME280;38002;53.296;6.600;2022-10-16T01:34:34;100991.97;;;12.55;88.24
51986;BME280;38002;53.296;6.600;2022-10-16T01:39:38;100990.91;;;12.56;88.26
51986;BME280;38002;53.296;6.600;2022-10-16T01:44:40;100984.44;;;12.57;87.87
51986;BME280;38002;53.296;6.600;2022-10-16T01:49:42;100996.91;;;12.59;88.14
51986;BME280;38002;53.296;6.600;2022-10-16T01:54:46;100994.69;;;12.63;87.90
51986;BME280;38002;53.296;6.600;2022-10-16T01:59:50;101002.88;;;12.63;88.09
51986;BME280;38002;53.296;6.600;2022-10-16T02:04:57;101005.41;;;12.64;87.81
51986;BME280;38002;53.296;6.600;2022-10-16T02:10:00;101007.13;;;12.65;88.11
51986;BME280;38002;53.296;6.600;2022-10-16T02:15:00;101001.66;;;12.65;88.22
51986;BME280;38002;53.296;6.600;2022-10-16T02:20:01;100998.94;;;12.65;87.97
51986;BME280;38002;53.296;6.600;2022-10-16T02:25:06;101010.53;;;12.67;87.71
51986;BME280;38002;53.296;6.600;2022-10-16T02:30:19;101002.84;;;12.71;87.54
51986;BME280;38002;53.296;6.600;2022-10-16T02:35:22;101000.13;;;12.71;87.27
51986;BME280;38002;53.296;6.600;2022-10-16T02:40:24;100994.66;;;12.71;87.67
51986;BME280;38002;53.296;6.600;2022-10-16T02:45:25;100996.53;;;12.70;87.14
51986;BME280;38002;53.296;6.600;2022-10-16T02:50:26;101013.59;;;12.72;87.24
51986;BME280;38002;53.296;6.600;2022-10-16T02:55:27;101019.88;;;12.73;87.56
51986;BME280;38002;53.296;6.600;2022-10-16T03:00:28;101020.09;;;12.71;87.27
51986;BME280;38002;53.296;6.600;2022-10-16T03:05:28;101018.53;;;12.69;87.60
51986;BME280;38002;53.296;6.600;2022-10-16T03:10:30;101016.31;;;12.64;86.13
51986;BME280;38002;53.296;6.600;2022-10-16T03:15:30;101020.41;;;12.60;86.86
51986;BME280;38002;53.296;6.600;2022-10-16T03:20:31;101014.09;;;12.60;87.56
51986;BME280;38002;53.296;6.600;2022-10-16T03:25:31;101020.59;;;12.59;86.76
51986;BME280;38002;53.296;6.600;2022-10-16T03:30:32;101018.75;;;12.59;86.66
51986;BME280;38002;53.296;6.600;2022-10-16T03:35:32;101025.00;;;12.60;86.36
51986;BME280;38002;53.296;6.600;2022-10-16T03:40:33;101018.72;;;12.67;86.19
51986;BME280;38002;53.296;6.600;2022-10-16T03:45:33;101015.81;;;12.69;86.40
51986;BME280;38002;53.296;6.600;2022-10-16T03:50:34;101030.31;;;12.69;85.82
51986;BME280;38002;53.296;6.600;2022-10-16T03:55:34;101034.41;;;12.65;86.04
51986;BME280;38002;53.296;6.600;2022-10-16T04:00:35;101031.66;;;12.65;85.95
51986;BME280;38002;53.296;6.600;2022-10-16T04:05:36;101045.50;;;12.64;86.27
51986;BME280;38002;53.296;6.600;2022-10-16T04:10:36;101042.25;;;12.60;86.48
51986;BME280;38002;53.296;6.600;2022-10-16T04:15:36;101038.50;;;12.53;86.36
51986;BME280;38002;53.296;6.600;2022-10-16T04:20:37;101045.31;;;12.49;86.91
51986;BME280;38002;53.296;6.600;2022-10-16T04:25:37;101047.69;;;12.44;86.44
51986;BME280;38002;53.296;6.600;2022-10-16T04:30:38;101058.97;;;12.41;86.97
51986;BME280;38002;53.296;6.600;2022-10-16T04:35:39;101081.78;;;12.40;86.97
51986;BME280;38002;53.296;6.600;2022-10-16T04:40:41;101092.34;;;12.43;87.07
51986;BME280;38002;53.296;6.600;2022-10-16T04:45:42;101087.25;;;12.48;86.89
51986;BME280;38002;53.296;6.600;2022-10-16T04:50:42;101097.16;;;12.49;87.00
51986;BME280;38002;53.296;6.600;2022-10-16T04:55:43;101105.16;;;12.51;86.87
51986;BME280;38002;53.296;6.600;2022-10-16T05:00:44;101102.25;;;12.52;87.23
51986;BME280;38002;53.296;6.600;2022-10-16T05:05:45;101097.16;;;12.57;87.09
51986;BME280;38002;53.296;6.600;2022-10-16T05:10:46;101098.00;;;12.58;87.08
51986;BME280;38002;53.296;6.600;2022-10-16T05:15:47;101098.00;;;12.58;87.30
51986;BME280;38002;53.296;6.600;2022-10-16T05:20:48;101114.22;;;12.59;86.99
51986;BME280;38002;53.296;6.600;2022-10-16T05:25:55;101120.69;;;12.58;87.15
51986;BME280;38002;53.296;6.600;2022-10-16T05:30:58;101116.09;;;12.59;87.09
51986;BME280;38002;53.296;6.600;2022-10-16T05:36:07;101107.03;;;12.58;87.40
51986;BME280;38002;53.296;6.600;2022-10-16T05:41:09;101120.69;;;12.58;87.60
51986;BME280;38002;53.296;6.600;2022-10-16T05:46:09;101122.72;;;12.56;87.84
51986;BME280;38002;53.296;6.600;2022-10-16T05:51:12;101120.34;;;12.53;88.01
51986;BME280;38002;53.296;6.600;2022-10-16T05:56:12;101135.69;;;12.54;88.10
51986;BME280;38002;53.296;6.600;2022-10-16T06:01:15;101129.38;;;12.54;87.80
51986;BME280;38002;53.296;6.600;2022-10-16T06:06:22;101134.97;;;12.52;87.84
51986;BME280;38002;53.296;6.600;2022-10-16T06:11:28;101158.88;;;12.50;87.86
51986;BME280;38002;53.296;6.600;2022-10-16T06:16:29;101177.44;;;12.47;88.26
51986;BME280;38002;53.296;6.600;2022-10-16T06:21:30;101173.50;;;12.41;88.09
51986;BME280;38002;53.296;6.600;2022-10-16T06:26:31;101171.94;;;12.39;88.38
51986;BME280;38002;53.296;6.600;2022-10-16T06:31:32;101176.38;;;12.40;88.25
51986;BME280;38002;53.296;6.600;2022-10-16T06:36:33;101172.31;;;12.44;88.82
51986;BME280;38002;53.296;6.600;2022-10-16T06:41:34;101174.53;;;12.48;88.63
51986;BME280;38002;53.296;6.600;2022-10-16T06:46:34;101185.97;;;12.52;88.57
51986;BME280;38002;53.296;6.600;2022-10-16T06:51:35;101202.00;;;12.55;88.83
51986;BME280;38002;53.296;6.600;2022-10-16T06:56:40;101205.59;;;12.55;88.81
51986;BME280;38002;53.296;6.600;2022-10-16T07:01:41;101210.38;;;12.61;88.22
51986;BME280;38002;53.296;6.600;2022-10-16T07:06:41;101211.94;;;12.64;88.14
51986;BME280;38002;53.296;6.600;2022-10-16T07:11:41;101226.59;;;12.71;88.59
51986;BME280;38002;53.296;6.600;2022-10-16T07:16:42;101244.00;;;12.78;88.10
51986;BME280;38002;53.296;6.600;2022-10-16T07:21:43;101261.25;;;12.87;87.87
51986;BME280;38002;53.296;6.600;2022-10-16T07:26:45;101272.19;;;12.95;88.02
51986;BME280;38002;53.296;6.600;2022-10-16T07:31:47;101278.84;;;13.00;87.39
51986;BME280;38002;53.296;6.600;2022-10-16T07:36:49;101280.47;;;13.11;87.16
51986;BME280;38002;53.296;6.600;2022-10-16T07:41:49;101287.09;;;13.16;86.72
51986;BME280;38002;53.296;6.600;2022-10-16T07:46:50;101281.13;;;13.21;86.80
51986;BME280;38002;53.296;6.600;2022-10-16T07:51:50;101290.53;;;13.27;86.37
51986;BME280;38002;53.296;6.600;2022-10-16T07:56:51;101289.69;;;13.26;87.08
51986;BME280;38002;53.296;6.600;2022-10-16T08:01:51;101309.50;;;13.20;86.86
51986;BME280;38002;53.296;6.600;2022-10-16T08:06:51;101314.75;;;13.13;87.02
51986;BME280;38002;53.296;6.600;2022-10-16T08:11:52;101314.91;;;13.12;87.14
51986;BME280;38002;53.296;6.600;2022-10-16T08:16:52;101334.22;;;13.18;87.88
51986;BME280;38002;53.296;6.600;2022-10-16T08:21:53;101338.19;;;13.32;87.31
51986;BME280;38002;53.296;6.600;2022-10-16T08:26:54;101359.03;;;13.49;87.10
51986;BME280;38002;53.296;6.600;2022-10-16T08:31:54;101354.28;;;13.68;87.32
51986;BME280;38002;53.296;6.600;2022-10-16T08:36:55;101348.44;;;13.79;86.88
51986;BME280;38002;53.296;6.600;2022-10-16T08:47:18;101375.44;;;13.90;86.58
51986;BME280;38002;53.296;6.600;2022-10-16T08:52:20;101381.97;;;13.89;86.36
51986;BME280;38002;53.296;6.600;2022-10-16T08:57:22;101388.78;;;14.01;86.21
51986;BME280;38002;53.296;6.600;2022-10-16T09:03:10;101396.97;;;14.17;85.31
51986;BME280;38002;53.296;6.600;2022-10-16T09:13:46;101427.75;;;14.19;86.38
51986;BME280;38002;53.296;6.600;2022-10-16T09:23:49;101436.28;;;14.32;86.01
51986;BME280;38002;53.296;6.600;2022-10-16T09:28:52;101449.09;;;14.56;85.78
51986;BME280;38002;53.296;6.600;2022-10-16T09:34:00;101452.00;;;14.71;84.96
51986;BME280;38002;53.296;6.600;2022-10-16T09:39:08;101450.94;;;14.88;85.26
51986;BME280;38002;53.296;6.600;2022-10-16T09:44:28;101467.66;;;15.01;83.90
51986;BME280;38002;53.296;6.600;2022-10-16T09:49:29;101471.72;;;15.13;84.12
51986;BME280;38002;53.296;6.600;2022-10-16T09:54:30;101469.44;;;15.25;84.60
51986;BME280;38002;53.296;6.600;2022-10-16T09:59:31;101457.41;;;15.34;84.12
51986;BME280;38002;53.296;6.600;2022-10-16T10:04:50;101471.94;;;15.42;84.14
51986;BME280;38002;53.296;6.600;2022-10-16T10:09:51;101466.78;;;15.48;83.62
51986;BME280;38002;53.296;6.600;2022-10-16T10:14:55;101483.03;;;15.49;82.43
51986;BME280;38002;53.296;6.600;2022-10-16T10:25:30;101504.13;;;15.57;80.43
51986;BME280;38002;53.296;6.600;2022-10-16T10:46:03;101529.78;;;15.95;80.86
51986;BME280;38002;53.296;6.600;2022-10-16T10:51:07;101542.41;;;16.04;79.93
51986;BME280;38002;53.296;6.600;2022-10-16T11:07:15;101546.78;;;16.44;73.33
51986;BME280;38002;53.296;6.600;2022-10-16T11:12:29;101553.34;;;16.80;77.98
51986;BME280;38002;53.296;6.600;2022-10-16T11:17:43;101559.16;;;17.14;75.91
51986;BME280;38002;53.296;6.600;2022-10-16T11:22:53;101564.50;;;17.45;74.78
51986;BME280;38002;53.296;6.600;2022-10-16T11:28:11;101564.78;;;17.65;69.69
51986;BME280;38002;53.296;6.600;2022-10-16T11:38:28;101605.19;;;16.98;75.40
51986;BME280;38002;53.296;6.600;2022-10-16T11:43:33;101606.06;;;16.75;76.80
51986;BME280;38002;53.296;6.600;2022-10-16T11:48:50;101608.78;;;16.61;72.80
51986;BME280;38002;53.296;6.600;2022-10-16T11:54:04;101627.25;;;16.36;76.75
51986;BME280;38002;53.296;6.600;2022-10-16T11:59:19;101627.41;;;16.12;71.18
51986;BME280;38002;53.296;6.600;2022-10-16T12:04:44;101637.84;;;16.47;75.30
51986;BME280;38002;53.296;6.600;2022-10-16T12:09:47;101643.41;;;17.07;76.89
51986;BME280;38002;53.296;6.600;2022-10-16T12:14:47;101644.22;;;17.68;76.10
51986;BME280;38002;53.296;6.600;2022-10-16T12:20:24;101653.06;;;18.29;71.51
51986;BME280;38002;53.296;6.600;2022-10-16T12:25:33;101671.13;;;18.67;67.42
51986;BME280;38002;53.296;6.600;2022-10-16T12:30:36;101668.09;;;18.62;73.36
51986;BME280;38002;53.296;6.600;2022-10-16T12:35:44;101687.53;;;18.25;72.73
51986;BME280;38002;53.296;6.600;2022-10-16T12:40:55;101686.91;;;17.93;73.41
51986;BME280;38002;53.296;6.600;2022-10-16T13:18:33;101730.47;;;16.84;73.20
51986;BME280;38002;53.296;6.600;2022-10-16T13:29:14;101743.81;;;17.18;73.16
51986;BME280;38002;53.296;6.600;2022-10-16T13:34:21;101748.34;;;17.34;71.97
51986;BME280;38002;53.296;6.600;2022-10-16T13:39:24;101755.69;;;17.56;72.57
51986;BME280;38002;53.296;6.600;2022-10-16T13:44:26;101765.53;;;17.73;71.52
51986;BME280;38002;53.296;6.600;2022-10-16T13:49:26;101773.41;;;17.76;71.23
51986;BME280;38002;53.296;6.600;2022-10-16T13:54:27;101767.66;;;17.86;70.37
51986;BME280;38002;53.296;6.600;2022-10-16T13:59:36;101775.97;;;17.78;69.67
51986;BME280;38002;53.296;6.600;2022-10-16T14:04:39;101792.66;;;17.76;70.52
51986;BME280;38002;53.296;6.600;2022-10-16T14:09:39;101797.19;;;17.69;70.27
51986;BME280;38002;53.296;6.600;2022-10-16T14:14:46;101792.56;;;17.47;67.98
51986;BME280;38002;53.296;6.600;2022-10-16T14:19:48;101796.34;;;17.23;70.20
51986;BME280;38002;53.296;6.600;2022-10-16T14:24:50;101793.72;;;17.07;70.29
51986;BME280;38002;53.296;6.600;2022-10-16T14:29:50;101815.06;;;16.97;70.82
51986;BME280;38002;53.296;6.600;2022-10-16T14:34:54;101820.81;;;16.79;70.47
51986;BME280;38002;53.296;6.600;2022-10-16T14:39:55;101834.63;;;16.63;71.14
51986;BME280;38002;53.296;6.600;2022-10-16T14:44:57;101840.66;;;16.50;71.47
51986;BME280;38002;53.296;6.600;2022-10-16T14:49:58;101852.53;;;16.43;71.54
51986;BME280;38002;53.296;6.600;2022-10-16T14:54:59;101855.81;;;16.30;71.56
51986;BME280;38002;53.296;6.600;2022-10-16T15:00:00;101859.44;;;16.14;71.91
51986;BME280;38002;53.296;6.600;2022-10-16T15:05:23;101865.09;;;15.97;70.15
51986;BME280;38002;53.296;6.600;2022-10-16T15:10:27;101855.72;;;15.83;72.03
51986;BME280;38002;53.296;6.600;2022-10-16T15:20:36;101854.50;;;15.69;72.50
51986;BME280;38002;53.296;6.600;2022-10-16T15:25:43;101858.13;;;15.62;72.59
51986;BME280;38002;53.296;6.600;2022-10-16T15:30:45;101870.63;;;15.56;73.02
51986;BME280;38002;53.296;6.600;2022-10-16T15:35:46;101864.22;;;15.48;73.10
51986;BME280;38002;53.296;6.600;2022-10-16T15:40:48;101868.50;;;15.42;73.43
51986;BME280;38002;53.296;6.600;2022-10-16T15:46:02;101871.38;;;15.32;73.65
51986;BME280;38002;53.296;6.600;2022-10-16T15:51:05;101871.22;;;15.26;73.96
51986;BME280;38002;53.296;6.600;2022-10-16T15:56:07;101877.00;;;15.15;74.22
51986;BME280;38002;53.296;6.600;2022-10-16T16:01:08;101888.63;;;15.01;74.71
51986;BME280;38002;53.296;6.600;2022-10-16T16:06:11;101889.25;;;14.86;74.53
51986;BME280;38002;53.296;6.600;2022-10-16T16:11:14;101892.78;;;14.71;75.20
51986;BME280;38002;53.296;6.600;2022-10-16T16:16:17;101892.66;;;14.54;75.53
51986;BME280;38002;53.296;6.600;2022-10-16T16:21:18;101900.94;;;14.37;75.86
51986;BME280;38002;53.296;6.600;2022-10-16T16:26:23;101903.72;;;14.19;75.90
51986;BME280;38002;53.296;6.600;2022-10-16T16:31:29;101914.69;;;14.01;76.39
51986;BME280;38002;53.296;6.600;2022-10-16T16:36:30;101926.34;;;13.86;76.55
51986;BME280;38002;53.296;6.600;2022-10-16T16:41:30;101930.78;;;13.69;76.96
51986;BME280;38002;53.296;6.600;2022-10-16T16:46:32;101933.22;;;13.54;77.11
51986;BME280;38002;53.296;6.600;2022-10-16T16:51:33;101930.72;;;13.43;77.60
51986;BME280;38002;53.296;6.600;2022-10-16T16:56:33;101955.53;;;13.32;77.75
51986;BME280;38002;53.296;6.600;2022-10-16T17:01:34;101955.88;;;13.20;77.71
51986;BME280;38002;53.296;6.600;2022-10-16T17:06:34;101968.59;;;13.11;78.58
51986;BME280;38002;53.296;6.600;2022-10-16T17:11:35;101965.13;;;12.99;78.63
51986;BME280;38002;53.296;6.600;2022-10-16T17:16:37;101968.78;;;12.90;78.27
51986;BME280;38002;53.296;6.600;2022-10-16T17:21:39;101982.47;;;12.81;78.84
51986;BME280;38002;53.296;6.600;2022-10-16T17:26:40;101988.09;;;12.69;79.17
51986;BME280;38002;53.296;6.600;2022-10-16T17:31:44;101994.16;;;12.63;79.56
51986;BME280;38002;53.296;6.600;2022-10-16T17:36:44;102000.50;;;12.54;79.41
51986;BME280;38002;53.296;6.600;2022-10-16T17:41:47;101995.94;;;12.45;79.75
51986;BME280;38002;53.296;6.600;2022-10-16T17:46:49;101994.81;;;12.38;79.95
51986;BME280;38002;53.296;6.600;2022-10-16T17:51:51;102004.41;;;12.33;79.90
51986;BME280;38002;53.296;6.600;2022-10-16T17:56:52;102009.00;;;12.22;82.05
51986;BME280;38002;53.296;6.600;2022-10-16T18:01:52;102018.19;;;12.21;80.42
51986;BME280;38002;53.296;6.600;2022-10-16T18:06:53;102034.28;;;12.15;80.50
51986;BME280;38002;53.296;6.600;2022-10-16T18:11:55;102038.59;;;12.08;80.66
51986;BME280;38002;53.296;6.600;2022-10-16T18:17:01;102042.59;;;12.04;80.85
51986;BME280;38002;53.296;6.600;2022-10-16T18:22:02;102035.88;;;11.98;80.75
51986;BME280;38002;53.296;6.600;2022-10-16T18:27:03;102034.56;;;11.93;80.62
51986;BME280;38002;53.296;6.600;2022-10-16T18:32:03;102049.47;;;11.89;81.16
51986;BME280;38002;53.296;6.600;2022-10-16T18:37:04;102047.03;;;11.86;81.21
51986;BME280;38002;53.296;6.600;2022-10-16T18:42:04;102048.34;;;11.81;81.49
51986;BME280;38002;53.296;6.600;2022-10-16T18:47:05;102047.88;;;11.76;81.70
51986;BME280;38002;53.296;6.600;2022-10-16T18:52:05;102051.59;;;11.75;81.83
51986;BME280;38002;53.296;6.600;2022-10-16T18:57:06;102058.22;;;11.73;81.78
51986;BME280;38002;53.296;6.600;2022-10-16T19:02:11;102059.19;;;11.72;81.83
51986;BME280;38002;53.296;6.600;2022-10-16T19:07:11;102068.63;;;11.68;82.08
51986;BME280;38002;53.296;6.600;2022-10-16T19:12:14;102059.28;;;11.61;82.03
51986;BME280;38002;53.296;6.600;2022-10-16T19:17:15;102066.16;;;11.55;82.22
51986;BME280;38002;53.296;6.600;2022-10-16T19:22:15;102080.03;;;11.52;82.17
51986;BME280;38002;53.296;6.600;2022-10-16T19:27:49;102059.53;;;11.48;81.92
51986;BME280;38002;53.296;6.600;2022-10-16T19:32:50;102057.09;;;11.45;82.34
51986;BME280;38002;53.296;6.600;2022-10-16T19:37:52;102077.44;;;11.41;82.54
51986;BME280;38002;53.296;6.600;2022-10-16T19:42:52;102071.41;;;11.37;82.51
51986;BME280;38002;53.296;6.600;2022-10-16T19:47:53;102079.69;;;11.36;82.78
51986;BME280;38002;53.296;6.600;2022-10-16T19:52:54;102069.09;;;11.33;83.16
51986;BME280;38002;53.296;6.600;2022-10-16T19:57:54;102078.13;;;11.33;82.84
51986;BME280;38002;53.296;6.600;2022-10-16T20:02:54;102092.84;;;11.31;82.93
51986;BME280;38002;53.296;6.600;2022-10-16T20:07:55;102084.84;;;11.29;83.24
51986;BME280;38002;53.296;6.600;2022-10-16T20:12:55;102097.59;;;11.29;83.21
51986;BME280;38002;53.296;6.600;2022-10-16T20:17:56;102102.88;;;11.30;83.48
51986;BME280;38002;53.296;6.600;2022-10-16T20:22:56;102112.94;;;11.30;82.94
51986;BME280;38002;53.296;6.600;2022-10-16T20:27:56;102098.31;;;11.31;83.21
51986;BME280;38002;53.296;6.600;2022-10-16T20:32:57;102091.75;;;11.33;83.29
51986;BME280;38002;53.296;6.600;2022-10-16T20:37:57;102094.06;;;11.38;83.94
51986;BME280;38002;53.296;6.600;2022-10-16T20:42:58;102081.16;;;11.40;83.85
51986;BME280;38002;53.296;6.600;2022-10-16T20:47:58;102072.84;;;11.42;83.81
51986;BME280;38002;53.296;6.600;2022-10-16T20:52:59;102079.16;;;11.42;84.10
51986;BME280;38002;53.296;6.600;2022-10-16T20:57:59;102092.63;;;11.44;84.14
51986;BME280;38002;53.296;6.600;2022-10-16T21:03:00;102082.34;;;11.47;84.05
51986;BME280;38002;53.296;6.600;2022-10-16T21:08:00;102076.59;;;11.50;84.08
51986;BME280;38002;53.296;6.600;2022-10-16T21:13:01;102067.56;;;11.50;84.38
51986;BME280;38002;53.296;6.600;2022-10-16T21:18:01;102059.09;;;11.53;84.52
51986;BME280;38002;53.296;6.600;2022-10-16T21:23:01;102051.81;;;11.53;84.46
51986;BME280;38002;53.296;6.600;2022-10-16T21:28:02;102045.66;;;11.51;84.67
51986;BME280;38002;53.296;6.600;2022-10-16T21:33:03;102048.63;;;11.48;84.63
51986;BME280;38002;53.296;6.600;2022-10-16T21:38:03;102048.91;;;11.45;84.75
51986;BME280;38002;53.296;6.600;2022-10-16T21:43:05;102069.72;;;11.46;84.46
51986;BME280;38002;53.296;6.600;2022-10-16T21:48:06;102064.38;;;11.45;84.79
51986;BME280;38002;53.296;6.600;2022-10-16T21:53:06;102069.84;;;11.45;84.82
51986;BME280;38002;53.296;6.600;2022-10-16T21:58:07;102053.66;;;11.43;84.85
51986;BME280;38002;53.296;6.600;2022-10-16T22:03:07;102057.09;;;11.45;85.02
51986;BME280;38002;53.296;6.600;2022-10-16T22:08:08;102039.88;;;11.45;85.02
51986;BME280;38002;53.296;6.600;2022-10-16T22:13:08;102016.97;;;11.47;85.06
51986;BME280;38002;53.296;6.600;2022-10-16T22:18:08;102027.88;;;11.47;85.04
51986;BME280;38002;53.296;6.600;2022-10-16T22:23:09;102028.69;;;11.48;85.56
51986;BME280;38002;53.296;6.600;2022-10-16T22:28:09;102034.00;;;11.49;85.52
51986;BME280;38002;53.296;6.600;2022-10-16T22:33:13;102018.41;;;11.51;85.51
51986;BME280;38002;53.296;6.600;2022-10-16T22:38:13;102022.84;;;11.52;85.47
51986;BME280;38002;53.296;6.600;2022-10-16T22:43:13;102009.81;;;11.56;85.59
51986;BME280;38002;53.296;6.600;2022-10-16T22:48:14;102012.38;;;11.57;85.65
51986;BME280;38002;53.296;6.600;2022-10-16T22:53:14;102012.94;;;11.61;85.85
51986;BME280;38002;53.296;6.600;2022-10-16T22:58:15;102013.81;;;11.61;85.65
51986;BME280;38002;53.296;6.600;2022-10-16T23:03:15;102011.25;;;11.60;85.61
51986;BME280;38002;53.296;6.600;2022-10-16T23:08:16;101994.47;;;11.55;85.74
51986;BME280;38002;53.296;6.600;2022-10-16T23:13:17;101994.88;;;11.50;85.69
51986;BME280;38002;53.296;6.600;2022-10-16T23:18:17;101999.88;;;11.45;85.68
51986;BME280;38002;53.296;6.600;2022-10-16T23:23:17;102001.31;;;11.39;85.82
51986;BME280;38002;53.296;6.600;2022-10-16T23:28:18;102010.91;;;11.34;85.94
51986;BME280;38002;53.296;6.600;2022-10-16T23:33:18;102022.34;;;11.28;85.79
51986;BME280;38002;53.296;6.600;2022-10-16T23:38:19;102012.84;;;11.22;85.74
51986;BME280;38002;53.296;6.600;2022-10-16T23:43:19;102018.72;;;11.18;85.72
51986;BME280;38002;53.296;6.600;2022-10-16T23:48:20;102029.19;;;11.13;86.02
51986;BME280;38002;53.296;6.600;2022-10-16T23:53:20;102009.66;;;11.08;86.03
51986;BME280;38002;53.296;6.600;2022-10-16T23:58:22;102008.22;;;11.04;85.97
